createdAt,value
2016-09-16T00:00:02.601Z,68.98
2016-09-16T00:00:24.329Z,69.06
2016-09-16T00:00:50.821Z,68.65
2016-09-16T00:01:12.550Z,68.03
2016-09-16T00:01:34.300Z,67.85
2016-09-16T00:01:56.016Z,67.83
2016-09-16T00:02:17.734Z,67.83
2016-09-16T00:02:39.468Z,67.89
2016-09-16T00:03:01.199Z,68.01
2016-09-16T00:03:22.972Z,68.61
2016-09-16T00:03:44.690Z,68.87
2016-09-16T00:04:06.421Z,68.85
2016-09-16T00:04:29.148Z,68.00
2016-09-16T00:04:50.866Z,67.97
2016-09-16T00:05:12.613Z,67.90
2016-09-16T00:05:34.335Z,67.84
2016-09-16T00:05:56.060Z,67.99
2016-09-16T00:06:22.556Z,69.63
2016-09-16T00:06:44.274Z,69.62
2016-09-16T00:07:05.999Z,69.25
2016-09-16T00:07:27.718Z,69.41
2016-09-16T00:07:49.442Z,69.65
2016-09-16T00:08:11.190Z,70.09
2016-09-16T00:08:32.923Z,70.49
2016-09-16T00:08:54.649Z,70.37
2016-09-16T00:09:16.369Z,70.24
2016-09-16T00:09:38.096Z,70.33
2016-09-16T00:09:59.816Z,70.81
2016-09-16T00:10:21.566Z,71.18
2016-09-16T00:10:43.289Z,71.02
2016-09-16T00:11:05.017Z,70.75
2016-09-16T00:11:26.735Z,70.85
2016-09-16T00:11:48.486Z,71.18
2016-09-16T00:12:10.197Z,71.09
2016-09-16T00:12:31.941Z,71.01
2016-09-16T00:12:53.670Z,70.49
2016-09-16T00:13:15.401Z,70.49
2016-09-16T00:13:37.139Z,70.47
2016-09-16T00:13:58.860Z,69.85
2016-09-16T00:14:20.578Z,69.32
2016-09-16T00:14:42.319Z,69.57
2016-09-16T00:15:04.057Z,70.20
2016-09-16T00:15:25.788Z,69.90
2016-09-16T00:15:47.503Z,69.55
2016-09-16T00:16:10.229Z,69.28
2016-09-16T00:16:32.000Z,69.86
2016-09-16T00:16:53.730Z,70.55
2016-09-16T00:17:15.491Z,69.93
2016-09-16T00:17:37.222Z,70.23
2016-09-16T00:17:58.949Z,70.51
2016-09-16T00:18:20.770Z,70.81
2016-09-16T00:18:42.502Z,71.38
2016-09-16T00:19:04.214Z,71.30
2016-09-16T00:19:25.945Z,71.36
2016-09-16T00:19:52.453Z,71.14
2016-09-16T00:20:14.194Z,71.66
2016-09-16T00:20:35.923Z,71.72
2016-09-16T00:20:57.658Z,71.71
2016-09-16T00:21:24.160Z,71.53
2016-09-16T00:22:17.158Z,71.34
2016-09-16T00:22:38.883Z,71.31
2016-09-16T00:23:00.617Z,71.15
2016-09-16T00:23:22.342Z,70.75
2016-09-16T00:23:44.085Z,70.90
2016-09-16T00:24:05.842Z,71.44
2016-09-16T00:24:27.577Z,71.08
2016-09-16T00:24:49.363Z,71.04
2016-09-16T00:25:11.081Z,71.12
2016-09-16T00:25:37.577Z,70.67
2016-09-16T00:25:59.298Z,70.31
2016-09-16T00:26:21.043Z,70.21
2016-09-16T00:26:42.771Z,69.56
2016-09-16T00:27:04.579Z,69.30
2016-09-16T00:27:26.306Z,69.38
2016-09-16T00:27:48.054Z,69.63
2016-09-16T00:28:09.923Z,70.30
2016-09-16T00:28:31.651Z,70.73
2016-09-16T00:28:56.272Z,70.70
2016-09-16T00:29:17.990Z,71.14
2016-09-16T00:29:39.714Z,70.95
2016-09-16T00:30:01.440Z,70.67
2016-09-16T00:30:23.174Z,70.38
2016-09-16T00:30:44.905Z,70.61
2016-09-16T00:31:06.623Z,70.26
2016-09-16T00:31:28.355Z,70.06
2016-09-16T00:31:50.108Z,70.70
2016-09-16T00:32:11.836Z,70.86
2016-09-16T00:32:33.561Z,71.52
2016-09-16T00:32:55.427Z,71.06
2016-09-16T00:33:17.154Z,71.59
2016-09-16T00:33:38.873Z,71.25
2016-09-16T00:34:00.602Z,70.96
2016-09-16T00:34:22.322Z,70.53
2016-09-16T00:34:44.034Z,70.91
2016-09-16T00:35:05.786Z,71.58
2016-09-16T00:35:27.512Z,72.25
2016-09-16T00:35:49.242Z,72.46
2016-09-16T00:36:10.966Z,72.60
2016-09-16T00:36:32.851Z,72.46
2016-09-16T00:36:54.582Z,72.50
2016-09-16T00:37:16.331Z,72.26
2016-09-16T00:37:38.055Z,72.35
2016-09-16T00:37:59.782Z,72.46
2016-09-16T00:38:22.515Z,72.02
2016-09-16T00:38:44.262Z,71.33
2016-09-16T00:39:05.997Z,71.67
2016-09-16T00:39:27.722Z,71.90
2016-09-16T00:39:51.602Z,72.31
2016-09-16T00:40:13.177Z,72.84
2016-09-16T00:40:34.921Z,72.82
2016-09-16T00:40:56.649Z,72.72
2016-09-16T00:41:18.377Z,71.85
2016-09-16T00:41:40.099Z,71.25
2016-09-16T00:42:01.824Z,70.85
2016-09-16T00:42:28.307Z,70.65
2016-09-16T00:42:50.122Z,70.98
2016-09-16T00:43:11.852Z,71.06
2016-09-16T00:43:33.590Z,71.88
2016-09-16T00:43:55.308Z,72.16
2016-09-16T00:44:17.029Z,71.40
2016-09-16T00:44:38.761Z,71.41
2016-09-16T00:45:00.473Z,72.21
2016-09-16T00:45:22.201Z,72.14
2016-09-16T00:45:43.933Z,72.37
2016-09-16T00:46:06.691Z,72.19
2016-09-16T00:46:28.416Z,71.91
2016-09-16T00:46:50.141Z,72.25
2016-09-16T00:47:16.666Z,72.91
2016-09-16T00:47:38.525Z,73.09
2016-09-16T00:48:00.259Z,72.96
2016-09-16T00:48:21.984Z,72.87
2016-09-16T00:49:19.734Z,72.16
2016-09-16T00:49:41.469Z,71.73
2016-09-16T00:50:03.199Z,71.32
2016-09-16T00:50:24.918Z,71.20
2016-09-16T00:50:46.650Z,71.82
2016-09-16T00:51:08.364Z,72.08
2016-09-16T00:51:30.087Z,72.41
2016-09-16T00:51:56.601Z,72.18
2016-09-16T00:52:18.316Z,71.56
2016-09-16T00:52:40.038Z,71.49
2016-09-16T00:53:02.774Z,71.77
2016-09-16T00:53:24.483Z,72.66
2016-09-16T00:53:46.214Z,72.77
2016-09-16T00:54:07.932Z,72.19
2016-09-16T00:54:29.661Z,72.27
2016-09-16T00:54:51.389Z,72.17
2016-09-16T00:55:13.120Z,71.94
2016-09-16T00:55:34.851Z,71.83
2016-09-16T00:56:01.351Z,72.53
2016-09-16T00:56:23.078Z,73.48
2016-09-16T00:56:44.781Z,73.46
2016-09-16T00:57:06.503Z,73.51
2016-09-16T00:57:28.229Z,72.86
2016-09-16T00:57:50.151Z,73.06
2016-09-16T00:58:11.894Z,73.19
2016-09-16T00:58:33.626Z,73.52
2016-09-16T00:58:55.379Z,73.32
2016-09-16T00:59:17.103Z,73.58
2016-09-16T00:59:38.851Z,73.84
2016-09-16T01:00:00.592Z,74.11
2016-09-16T01:00:22.311Z,73.51
2016-09-16T01:00:44.036Z,72.86
2016-09-16T01:01:05.763Z,72.34
2016-09-16T01:01:27.491Z,72.05
2016-09-16T01:01:49.231Z,72.01
2016-09-16T01:02:10.960Z,72.57
2016-09-16T01:02:32.698Z,72.30
2016-09-16T01:03:01.923Z,71.78
2016-09-16T01:03:23.718Z,71.75
2016-09-16T01:03:45.452Z,72.55
2016-09-16T01:04:07.174Z,72.70
2016-09-16T01:04:28.894Z,72.76
2016-09-16T01:04:51.622Z,72.84
2016-09-16T01:05:13.352Z,73.12
2016-09-16T01:05:35.082Z,73.13
2016-09-16T01:05:56.819Z,73.00
2016-09-16T01:06:18.528Z,72.68
2016-09-16T01:06:40.261Z,72.25
2016-09-16T01:07:01.981Z,72.59
2016-09-16T01:07:23.702Z,72.70
2016-09-16T01:07:45.453Z,72.64
2016-09-16T01:08:07.184Z,72.70
2016-09-16T01:08:28.919Z,72.84
2016-09-16T01:08:50.653Z,72.38
2016-09-16T01:09:12.378Z,72.18
2016-09-16T01:09:38.874Z,71.74
2016-09-16T01:10:00.598Z,71.79
2016-09-16T01:10:22.394Z,71.60
2016-09-16T01:10:44.109Z,71.11
2016-09-16T01:11:05.866Z,71.19
2016-09-16T01:11:27.594Z,70.95
2016-09-16T01:11:49.322Z,71.24
2016-09-16T01:12:11.049Z,71.42
2016-09-16T01:12:32.775Z,70.96
2016-09-16T01:12:54.512Z,70.92
2016-09-16T01:13:16.234Z,71.03
2016-09-16T01:13:37.968Z,72.14
2016-09-16T01:13:59.692Z,72.50
2016-09-16T01:14:21.433Z,72.76
2016-09-16T01:14:43.168Z,72.75
2016-09-16T01:15:04.896Z,73.12
2016-09-16T01:15:26.634Z,73.69
2016-09-16T01:15:48.358Z,73.83
2016-09-16T01:16:10.092Z,73.37
2016-09-16T01:16:31.837Z,72.94
2016-09-16T01:16:53.533Z,72.91
2016-09-16T01:17:15.260Z,72.93
2016-09-16T01:17:37.003Z,73.22
2016-09-16T01:17:58.723Z,73.33
2016-09-16T01:18:20.455Z,72.81
2016-09-16T01:18:42.205Z,73.01
2016-09-16T01:19:03.939Z,73.40
2016-09-16T01:19:25.670Z,72.94
2016-09-16T01:19:47.389Z,72.90
2016-09-16T01:20:09.120Z,73.13
2016-09-16T01:20:30.829Z,73.20
2016-09-16T01:20:52.567Z,73.25
2016-09-16T01:21:14.304Z,73.62
2016-09-16T01:21:36.035Z,73.63
2016-09-16T01:21:57.760Z,73.63
2016-09-16T01:22:19.475Z,73.70
2016-09-16T01:22:41.193Z,73.41
2016-09-16T01:23:03.920Z,72.87
2016-09-16T01:23:26.639Z,72.09
2016-09-16T01:23:48.352Z,72.00
2016-09-16T01:24:10.084Z,71.66
2016-09-16T01:24:31.802Z,71.89
2016-09-16T01:24:53.552Z,72.15
2016-09-16T01:25:16.269Z,72.18
2016-09-16T01:25:37.994Z,72.56
2016-09-16T01:25:59.706Z,73.04
2016-09-16T01:26:21.431Z,72.94
2016-09-16T01:26:43.242Z,72.80
2016-09-16T01:27:04.935Z,72.33
2016-09-16T01:27:26.659Z,72.37
2016-09-16T01:27:48.385Z,72.50
2016-09-16T01:28:10.099Z,72.20
2016-09-16T01:28:31.831Z,71.77
2016-09-16T01:28:53.549Z,72.60
2016-09-16T01:29:15.277Z,73.03
2016-09-16T01:29:38.000Z,72.54
2016-09-16T01:29:59.735Z,72.32
2016-09-16T01:30:26.225Z,72.31
2016-09-16T01:30:47.936Z,72.55
2016-09-16T01:31:09.699Z,72.47
2016-09-16T01:31:31.449Z,72.41
2016-09-16T01:31:53.210Z,72.44
2016-09-16T01:32:14.925Z,72.51
2016-09-16T01:32:36.652Z,72.14
2016-09-16T01:32:58.380Z,72.96
2016-09-16T01:33:20.116Z,73.50
2016-09-16T01:33:41.821Z,73.14
2016-09-16T01:34:03.549Z,73.35
2016-09-16T01:34:25.296Z,73.16
2016-09-16T01:34:47.033Z,73.38
2016-09-16T01:35:08.756Z,72.85
2016-09-16T01:35:30.480Z,72.43
2016-09-16T01:35:52.196Z,72.60
2016-09-16T01:36:13.930Z,73.07
2016-09-16T01:36:35.671Z,73.38
2016-09-16T01:36:57.401Z,73.45
2016-09-16T01:37:19.133Z,73.50
2016-09-16T01:37:40.855Z,72.93
2016-09-16T01:38:02.605Z,72.99
2016-09-16T01:38:25.350Z,72.84
2016-09-16T01:38:47.081Z,72.81
2016-09-16T01:39:08.813Z,72.98
2016-09-16T01:39:30.525Z,73.57
2016-09-16T01:39:52.286Z,73.79
2016-09-16T01:40:13.997Z,73.99
2016-09-16T01:40:36.710Z,74.07
2016-09-16T01:40:58.436Z,73.84
2016-09-16T01:41:20.211Z,73.33
2016-09-16T01:41:41.984Z,73.21
2016-09-16T01:42:03.715Z,72.89
2016-09-16T01:42:25.433Z,72.72
2016-09-16T01:42:47.181Z,72.54
2016-09-16T01:43:08.901Z,72.79
2016-09-16T01:43:30.627Z,73.80
2016-09-16T01:43:52.352Z,74.41
2016-09-16T01:44:14.083Z,74.50
2016-09-16T01:44:35.785Z,75.18
2016-09-16T01:44:57.613Z,74.76
2016-09-16T01:45:19.328Z,74.67
2016-09-16T01:45:41.059Z,74.09
2016-09-16T01:46:02.787Z,73.98
2016-09-16T01:46:24.512Z,74.73
2016-09-16T01:46:46.246Z,75.41
2016-09-16T01:47:07.984Z,75.18
2016-09-16T01:47:56.199Z,75.05
2016-09-16T01:48:18.915Z,75.24
2016-09-16T01:48:40.637Z,74.64
2016-09-16T01:49:02.359Z,73.88
2016-09-16T01:49:24.077Z,73.84
2016-09-16T01:49:45.799Z,74.51
2016-09-16T01:50:07.519Z,75.19
2016-09-16T01:50:29.252Z,75.67
2016-09-16T01:50:50.973Z,75.36
2016-09-16T01:51:12.695Z,75.54
2016-09-16T01:51:34.419Z,75.61
2016-09-16T01:51:56.134Z,75.30
2016-09-16T01:52:17.850Z,75.27
2016-09-16T01:52:39.570Z,75.14
2016-09-16T01:53:02.304Z,75.08
2016-09-16T01:53:50.543Z,73.86
2016-09-16T01:54:12.269Z,73.54
2016-09-16T01:54:34.003Z,73.13
2016-09-16T01:54:55.722Z,72.61
2016-09-16T01:55:17.449Z,72.55
2016-09-16T01:55:39.228Z,72.60
2016-09-16T01:56:00.950Z,72.72
2016-09-16T01:56:22.675Z,72.65
2016-09-16T01:56:44.401Z,72.86
2016-09-16T01:57:06.121Z,73.65
2016-09-16T01:57:32.624Z,73.90
2016-09-16T01:57:54.358Z,74.24
2016-09-16T01:58:16.086Z,74.38
2016-09-16T01:58:37.828Z,73.80
2016-09-16T01:58:59.546Z,73.59
2016-09-16T01:59:21.306Z,73.43
2016-09-16T01:59:43.072Z,72.91
2016-09-16T02:00:04.805Z,72.36
2016-09-16T02:00:26.518Z,72.80
2016-09-16T02:00:48.259Z,73.33
2016-09-16T02:01:09.984Z,73.65
2016-09-16T02:01:32.704Z,73.25
2016-09-16T02:01:54.442Z,72.93
2016-09-16T02:02:16.163Z,72.90
2016-09-16T02:02:37.891Z,73.99
2016-09-16T02:02:59.618Z,74.29
2016-09-16T02:03:21.343Z,74.27
2016-09-16T02:03:43.091Z,75.08
2016-09-16T02:04:04.873Z,75.02
2016-09-16T02:04:26.605Z,75.21
2016-09-16T02:04:48.320Z,74.57
2016-09-16T02:05:10.054Z,74.19
2016-09-16T02:05:31.804Z,74.87
2016-09-16T02:05:53.543Z,75.28
2016-09-16T02:06:15.270Z,75.57
2016-09-16T02:06:36.998Z,76.10
2016-09-16T02:06:58.816Z,76.08
2016-09-16T02:07:20.537Z,75.92
2016-09-16T02:07:42.403Z,75.86
2016-09-16T02:08:04.128Z,75.50
2016-09-16T02:08:25.865Z,75.29
2016-09-16T02:08:47.593Z,76.04
2016-09-16T02:09:09.353Z,76.33
2016-09-16T02:09:31.087Z,76.62
2016-09-16T02:09:57.584Z,76.63
2016-09-16T02:10:19.315Z,75.85
2016-09-16T02:10:41.052Z,75.62
2016-09-16T02:11:02.776Z,75.54
2016-09-16T02:11:24.502Z,75.97
2016-09-16T02:11:46.220Z,76.19
2016-09-16T02:12:07.947Z,76.58
2016-09-16T02:12:29.698Z,76.63
2016-09-16T02:12:51.422Z,76.47
2016-09-16T02:13:13.154Z,76.69
2016-09-16T02:13:34.875Z,77.31
2016-09-16T02:13:56.614Z,77.65
2016-09-16T02:14:18.332Z,77.21
2016-09-16T02:14:40.062Z,76.33
2016-09-16T02:15:01.803Z,75.95
2016-09-16T02:15:23.531Z,75.32
2016-09-16T02:15:45.266Z,75.05
2016-09-16T02:16:07.020Z,75.00
2016-09-16T02:16:28.742Z,75.94
2016-09-16T02:16:50.473Z,75.45
2016-09-16T02:17:12.255Z,75.83
2016-09-16T02:17:33.980Z,76.17
2016-09-16T02:17:55.708Z,75.90
2016-09-16T02:18:17.419Z,76.19
2016-09-16T02:18:39.153Z,75.90
2016-09-16T02:19:00.872Z,76.54
2016-09-16T02:19:22.620Z,76.99
2016-09-16T02:19:44.354Z,77.12
2016-09-16T02:20:06.124Z,76.98
2016-09-16T02:20:27.857Z,76.65
2016-09-16T02:20:49.586Z,76.71
2016-09-16T02:21:11.314Z,76.66
2016-09-16T02:21:33.052Z,76.97
2016-09-16T02:21:54.769Z,76.83
2016-09-16T02:22:16.501Z,76.84
2016-09-16T02:22:38.235Z,76.59
2016-09-16T02:22:59.964Z,76.20
2016-09-16T02:23:21.684Z,75.66
2016-09-16T02:23:43.419Z,76.42
2016-09-16T02:24:05.224Z,76.14
2016-09-16T02:24:26.949Z,76.00
2016-09-16T02:24:48.676Z,76.05
2016-09-16T02:25:10.412Z,76.30
2016-09-16T02:25:32.145Z,75.88
2016-09-16T02:25:53.864Z,75.68
2016-09-16T02:26:15.585Z,75.85
2016-09-16T02:26:37.313Z,75.64
2016-09-16T02:26:59.067Z,75.70
2016-09-16T02:27:20.782Z,75.27
2016-09-16T02:27:42.530Z,75.06
2016-09-16T02:28:04.257Z,75.37
2016-09-16T02:28:30.773Z,75.46
2016-09-16T02:28:53.499Z,74.96
2016-09-16T02:29:15.221Z,75.14
2016-09-16T02:29:36.951Z,75.46
2016-09-16T02:29:58.699Z,75.63
2016-09-16T02:30:20.430Z,75.95
2016-09-16T02:30:42.158Z,76.91
2016-09-16T02:31:03.890Z,77.47
2016-09-16T02:31:25.637Z,76.72
2016-09-16T02:31:47.371Z,76.15
2016-09-16T02:32:14.869Z,75.26
2016-09-16T02:32:36.587Z,74.67
2016-09-16T02:32:58.408Z,74.87
2016-09-16T02:33:20.139Z,74.97
2016-09-16T02:33:41.864Z,74.78
2016-09-16T02:34:03.588Z,74.69
2016-09-16T02:34:25.458Z,75.13
2016-09-16T02:34:47.173Z,75.22
2016-09-16T02:35:08.897Z,75.53
2016-09-16T02:35:30.613Z,76.00
2016-09-16T02:35:52.436Z,76.28
2016-09-16T02:36:14.158Z,75.99
2016-09-16T02:36:35.893Z,75.86
2016-09-16T02:36:57.637Z,76.04
2016-09-16T02:37:19.368Z,75.59
2016-09-16T02:37:41.110Z,75.46
2016-09-16T02:38:02.836Z,75.26
2016-09-16T02:38:24.561Z,75.57
2016-09-16T02:38:46.276Z,76.37
2016-09-16T02:39:08.005Z,76.77
2016-09-16T02:39:29.732Z,76.70
2016-09-16T02:39:51.464Z,77.00
2016-09-16T02:40:13.182Z,76.99
2016-09-16T02:40:34.907Z,75.94
2016-09-16T02:40:56.641Z,75.92
2016-09-16T02:41:18.366Z,74.99
2016-09-16T02:41:40.100Z,75.66
2016-09-16T02:42:02.820Z,76.12
2016-09-16T02:42:24.555Z,76.03
2016-09-16T02:42:46.282Z,75.75
2016-09-16T02:43:08.012Z,75.63
2016-09-16T02:43:29.760Z,75.57
2016-09-16T02:43:51.483Z,75.44
2016-09-16T02:44:14.203Z,75.44
2016-09-16T02:44:35.931Z,75.72
2016-09-16T02:44:58.673Z,75.65
2016-09-16T02:45:20.391Z,76.71
2016-09-16T02:45:42.126Z,76.82
2016-09-16T02:46:03.857Z,77.08
2016-09-16T02:46:25.601Z,77.05
2016-09-16T02:46:47.340Z,76.93
2016-09-16T02:47:09.063Z,77.26
2016-09-16T02:47:30.795Z,77.28
2016-09-16T02:47:52.529Z,77.48
2016-09-16T02:48:14.238Z,77.85
2016-09-16T02:48:40.741Z,78.46
2016-09-16T02:49:02.458Z,78.14
2016-09-16T02:49:24.189Z,77.54
2016-09-16T02:49:48.126Z,77.83
2016-09-16T02:50:09.867Z,77.98
2016-09-16T02:50:31.592Z,78.00
2016-09-16T02:50:53.315Z,77.94
2016-09-16T02:51:15.056Z,77.84
2016-09-16T02:51:36.789Z,78.34
2016-09-16T02:51:58.509Z,78.18
2016-09-16T02:52:21.265Z,78.16
2016-09-16T02:52:42.993Z,77.72
2016-09-16T02:53:04.705Z,77.43
2016-09-16T02:53:26.433Z,76.80
2016-09-16T02:53:48.164Z,76.30
2016-09-16T02:54:09.995Z,77.39
2016-09-16T02:54:31.958Z,77.92
2016-09-16T02:54:53.697Z,78.10
2016-09-16T02:55:15.432Z,78.20
2016-09-16T02:56:11.905Z,77.94
2016-09-16T02:56:33.641Z,77.98
2016-09-16T02:56:55.374Z,78.20
2016-09-16T02:57:17.118Z,78.24
2016-09-16T02:57:38.846Z,77.96
2016-09-16T02:58:00.570Z,77.17
2016-09-16T02:58:22.372Z,76.81
2016-09-16T02:58:44.107Z,77.28
2016-09-16T02:59:06.612Z,77.60
2016-09-16T02:59:29.935Z,77.45
2016-09-16T02:59:53.089Z,76.77
2016-09-16T03:00:15.293Z,76.46
2016-09-16T03:00:37.025Z,76.19
2016-09-16T03:00:58.752Z,76.94
2016-09-16T03:01:20.475Z,77.38
2016-09-16T03:01:42.219Z,77.36
2016-09-16T03:02:04.052Z,77.17
2016-09-16T03:02:25.774Z,77.25
2016-09-16T03:02:47.508Z,76.92
2016-09-16T03:03:09.223Z,76.55
2016-09-16T03:03:30.945Z,76.33
2016-09-16T03:03:52.727Z,76.53
2016-09-16T03:04:14.455Z,77.14
2016-09-16T03:04:36.183Z,77.34
2016-09-16T03:04:57.915Z,77.18
2016-09-16T03:05:19.636Z,77.26
2016-09-16T03:05:41.357Z,77.72
2016-09-16T03:06:07.854Z,77.58
2016-09-16T03:06:29.587Z,77.73
2016-09-16T03:06:51.313Z,77.85
2016-09-16T03:07:14.171Z,77.24
2016-09-16T03:07:35.901Z,77.52
2016-09-16T03:07:57.629Z,77.40
2016-09-16T03:08:19.418Z,77.81
2016-09-16T03:08:41.070Z,76.95
2016-09-16T03:09:02.801Z,76.90
2016-09-16T03:09:24.532Z,76.82
2016-09-16T03:09:46.257Z,76.82
2016-09-16T03:10:07.985Z,77.02
2016-09-16T03:10:29.710Z,76.67
2016-09-16T03:10:51.428Z,76.30
2016-09-16T03:11:13.155Z,76.38
2016-09-16T03:11:35.002Z,76.16
2016-09-16T03:11:56.724Z,76.07
2016-09-16T03:12:18.443Z,75.78
2016-09-16T03:12:40.181Z,75.76
2016-09-16T03:13:28.403Z,76.59
2016-09-16T03:13:50.116Z,76.55
2016-09-16T03:14:11.835Z,77.57
2016-09-16T03:14:33.588Z,77.09
2016-09-16T03:14:55.310Z,76.58
2016-09-16T03:15:17.034Z,76.35
2016-09-16T03:15:38.751Z,76.08
2016-09-16T03:16:00.478Z,75.72
2016-09-16T03:16:22.273Z,75.31
2016-09-16T03:16:44.004Z,75.63
2016-09-16T03:17:05.738Z,76.60
2016-09-16T03:17:27.467Z,77.34
2016-09-16T03:17:49.211Z,77.61
2016-09-16T03:18:10.949Z,77.95
2016-09-16T03:18:32.679Z,78.02
2016-09-16T03:18:54.404Z,78.37
2016-09-16T03:19:16.142Z,78.21
2016-09-16T03:19:37.863Z,78.47
2016-09-16T03:20:26.080Z,78.40
2016-09-16T03:20:47.882Z,78.17
2016-09-16T03:21:09.646Z,78.23
2016-09-16T03:21:31.358Z,77.78
2016-09-16T03:21:53.090Z,77.46
2016-09-16T03:22:14.804Z,77.64
2016-09-16T03:22:41.374Z,77.38
2016-09-16T03:23:03.089Z,76.91
2016-09-16T03:23:24.814Z,77.04
2016-09-16T03:23:46.600Z,77.08
2016-09-16T03:24:13.099Z,77.38
2016-09-16T03:24:34.827Z,77.68
2016-09-16T03:24:56.693Z,77.73
2016-09-16T03:25:20.392Z,77.95
2016-09-16T03:25:42.126Z,77.82
2016-09-16T03:26:03.857Z,77.94
2016-09-16T03:26:25.601Z,77.83
2016-09-16T03:26:47.336Z,78.09
2016-09-16T03:27:09.076Z,78.41
2016-09-16T03:27:30.804Z,78.06
2016-09-16T03:27:52.529Z,78.09
2016-09-16T03:28:14.257Z,77.79
2016-09-16T03:28:35.969Z,77.63
2016-09-16T03:28:57.722Z,77.31
2016-09-16T03:29:19.448Z,76.73
2016-09-16T03:29:41.165Z,77.93
2016-09-16T03:30:02.894Z,78.25
2016-09-16T03:30:24.635Z,78.07
2016-09-16T03:30:46.363Z,77.96
2016-09-16T03:31:08.093Z,78.26
2016-09-16T03:31:29.821Z,78.96
2016-09-16T03:31:51.563Z,78.43
2016-09-16T03:32:16.206Z,78.56
2016-09-16T03:32:37.986Z,78.17
2016-09-16T03:32:59.723Z,77.86
2016-09-16T03:33:21.453Z,77.84
2016-09-16T03:33:43.228Z,77.46
2016-09-16T03:34:04.949Z,77.78
2016-09-16T03:34:26.673Z,78.21
2016-09-16T03:34:48.452Z,78.00
2016-09-16T03:35:10.177Z,77.69
2016-09-16T03:35:31.928Z,78.21
2016-09-16T03:35:53.687Z,78.79
2016-09-16T03:36:15.413Z,79.27
2016-09-16T03:36:37.143Z,79.82
2016-09-16T03:37:03.678Z,79.66
2016-09-16T03:37:25.419Z,79.65
2016-09-16T03:37:47.163Z,79.10
2016-09-16T03:38:08.891Z,78.61
2016-09-16T03:38:30.631Z,78.87
2016-09-16T03:38:52.369Z,78.96
2016-09-16T03:39:14.099Z,78.92
2016-09-16T03:39:35.828Z,78.66
2016-09-16T03:39:57.582Z,78.76
2016-09-16T03:40:19.297Z,78.51
2016-09-16T03:40:41.029Z,78.01
2016-09-16T03:41:02.750Z,78.13
2016-09-16T03:41:24.485Z,77.89
2016-09-16T03:41:46.216Z,78.12
2016-09-16T03:42:07.943Z,77.59
2016-09-16T03:42:29.704Z,77.51
2016-09-16T03:42:51.426Z,77.30
2016-09-16T03:43:14.152Z,77.02
2016-09-16T03:43:35.880Z,77.13
2016-09-16T03:43:57.619Z,77.66
2016-09-16T03:44:19.343Z,77.58
2016-09-16T03:44:41.090Z,77.34
2016-09-16T03:45:02.817Z,77.13
2016-09-16T03:45:24.558Z,76.81
2016-09-16T03:45:47.288Z,77.33
2016-09-16T03:46:09.039Z,77.33
2016-09-16T03:46:35.409Z,77.35
2016-09-16T03:46:57.157Z,76.81
2016-09-16T03:47:18.875Z,76.64
2016-09-16T03:47:40.612Z,76.61
2016-09-16T03:48:02.338Z,77.02
2016-09-16T03:48:24.054Z,77.42
2016-09-16T03:48:45.780Z,77.20
2016-09-16T03:49:07.508Z,76.71
2016-09-16T03:49:29.234Z,76.47
2016-09-16T03:49:50.952Z,76.31
2016-09-16T03:50:12.693Z,76.46
2016-09-16T03:50:34.504Z,76.81
2016-09-16T03:50:56.248Z,76.62
2016-09-16T03:51:17.982Z,77.08
2016-09-16T03:51:39.704Z,77.16
2016-09-16T03:52:01.434Z,77.15
2016-09-16T03:52:23.170Z,76.86
2016-09-16T03:52:44.894Z,76.44
2016-09-16T03:53:06.616Z,76.25
2016-09-16T03:53:28.338Z,76.18
2016-09-16T03:53:50.066Z,76.03
2016-09-16T03:54:11.932Z,75.85
2016-09-16T03:54:33.537Z,75.50
2016-09-16T03:55:00.028Z,75.86
2016-09-16T03:55:21.767Z,75.91
2016-09-16T03:55:43.502Z,75.93
2016-09-16T03:56:05.233Z,75.94
2016-09-16T03:56:26.975Z,75.69
2016-09-16T03:56:48.703Z,75.22
2016-09-16T03:57:10.442Z,75.04
2016-09-16T03:57:32.166Z,74.96
2016-09-16T03:57:53.915Z,75.17
2016-09-16T03:58:15.692Z,74.85
2016-09-16T03:58:37.420Z,74.69
2016-09-16T03:58:59.132Z,74.90
2016-09-16T03:59:20.863Z,74.94
2016-09-16T03:59:42.584Z,75.19
2016-09-16T04:00:04.317Z,75.43
2016-09-16T04:00:26.190Z,75.42
2016-09-16T04:00:47.929Z,75.20
2016-09-16T04:01:09.647Z,75.23
2016-09-16T04:01:31.374Z,76.24
2016-09-16T04:01:57.881Z,76.70
2016-09-16T04:02:22.175Z,76.78
2016-09-16T04:02:43.922Z,76.73
2016-09-16T04:03:05.676Z,76.73
2016-09-16T04:03:27.397Z,76.60
2016-09-16T04:03:49.205Z,76.52
2016-09-16T04:04:10.924Z,76.43
2016-09-16T04:04:32.663Z,76.64
2016-09-16T04:04:54.383Z,76.60
2016-09-16T04:05:16.104Z,76.90
2016-09-16T04:05:37.833Z,76.99
2016-09-16T04:05:59.564Z,77.33
2016-09-16T04:06:21.292Z,77.50
2016-09-16T04:06:43.025Z,77.39
2016-09-16T04:07:04.831Z,77.35
2016-09-16T04:07:26.550Z,77.56
2016-09-16T04:07:53.049Z,77.55
2016-09-16T04:08:14.892Z,77.35
2016-09-16T04:08:36.623Z,77.24
2016-09-16T04:08:58.357Z,77.35
2016-09-16T04:09:21.098Z,77.30
2016-09-16T04:09:42.851Z,77.29
2016-09-16T04:10:04.569Z,76.83
2016-09-16T04:10:26.310Z,76.74
2016-09-16T04:10:48.047Z,76.39
2016-09-16T04:11:12.603Z,76.62
2016-09-16T04:11:34.328Z,76.21
2016-09-16T04:11:56.057Z,75.80
2016-09-16T04:12:17.807Z,75.38
2016-09-16T04:12:39.520Z,75.36
2016-09-16T04:13:01.239Z,75.71
2016-09-16T04:13:25.539Z,76.39
2016-09-16T04:13:47.411Z,76.37
2016-09-16T04:14:09.135Z,76.83
2016-09-16T04:14:30.866Z,77.03
2016-09-16T04:14:53.587Z,77.64
2016-09-16T04:15:15.337Z,77.20
2016-09-16T04:15:37.285Z,77.16
2016-09-16T04:15:59.075Z,77.60
2016-09-16T04:16:20.896Z,76.90
2016-09-16T04:16:42.541Z,76.90
2016-09-16T04:17:04.277Z,76.23
2016-09-16T04:17:26.006Z,75.83
2016-09-16T04:17:47.737Z,75.71
2016-09-16T04:18:09.458Z,76.04
2016-09-16T04:18:31.211Z,76.71
2016-09-16T04:18:52.937Z,76.60
2016-09-16T04:19:14.684Z,76.55
2016-09-16T04:19:36.408Z,76.60
2016-09-16T04:19:58.144Z,76.42
2016-09-16T04:20:19.882Z,76.27
2016-09-16T04:20:41.622Z,76.02
2016-09-16T04:21:03.340Z,76.00
2016-09-16T04:21:25.125Z,76.05
2016-09-16T04:21:46.902Z,75.97
2016-09-16T04:22:08.639Z,76.30
2016-09-16T04:22:30.370Z,76.51
2016-09-16T04:22:52.089Z,76.92
2016-09-16T04:23:13.817Z,76.99
2016-09-16T04:23:35.576Z,76.56
2016-09-16T04:23:57.340Z,76.46
2016-09-16T04:24:19.145Z,76.35
2016-09-16T04:24:41.859Z,75.96
2016-09-16T04:25:03.594Z,75.58
2016-09-16T04:25:25.366Z,75.24
2016-09-16T04:25:47.104Z,75.42
2016-09-16T04:26:08.857Z,75.70
2016-09-16T04:26:31.581Z,75.70
2016-09-16T04:26:53.302Z,75.67
2016-09-16T04:27:15.064Z,76.17
2016-09-16T04:27:41.552Z,76.13
2016-09-16T04:28:03.290Z,76.79
2016-09-16T04:28:25.020Z,77.02
2016-09-16T04:28:46.756Z,76.99
2016-09-16T04:29:08.508Z,77.31
2016-09-16T04:29:30.278Z,77.34
2016-09-16T04:29:52.003Z,77.59
2016-09-16T04:30:13.788Z,77.76
2016-09-16T04:30:35.577Z,77.64
2016-09-16T04:30:57.314Z,77.54
2016-09-16T04:31:19.040Z,77.32
2016-09-16T04:31:40.782Z,76.92
2016-09-16T04:32:02.512Z,76.51
2016-09-16T04:32:24.262Z,76.39
2016-09-16T04:32:46.037Z,76.39
2016-09-16T04:33:07.778Z,76.34
2016-09-16T04:33:29.516Z,76.61
2016-09-16T04:33:51.254Z,76.53
2016-09-16T04:34:13.004Z,76.68
2016-09-16T04:34:34.732Z,76.27
2016-09-16T04:34:56.463Z,76.38
2016-09-16T04:35:18.207Z,76.20
2016-09-16T04:35:39.942Z,75.75
2016-09-16T04:36:01.688Z,75.57
2016-09-16T04:36:23.404Z,75.43
2016-09-16T04:36:45.161Z,75.71
2016-09-16T04:37:06.927Z,76.11
2016-09-16T04:37:28.669Z,76.43
2016-09-16T04:37:50.444Z,76.75
2016-09-16T04:38:12.258Z,76.56
2016-09-16T04:38:33.987Z,76.44
2016-09-16T04:38:56.732Z,76.25
2016-09-16T04:39:18.469Z,76.08
2016-09-16T04:39:44.969Z,75.75
2016-09-16T04:40:06.716Z,75.52
2016-09-16T04:40:28.451Z,75.55
2016-09-16T04:40:51.196Z,75.81
2016-09-16T04:41:12.963Z,76.19
2016-09-16T04:41:34.800Z,76.40
2016-09-16T04:41:56.545Z,76.33
2016-09-16T04:42:18.281Z,76.36
2016-09-16T04:42:40.032Z,76.43
2016-09-16T04:43:01.772Z,76.47
2016-09-16T04:43:28.269Z,77.02
2016-09-16T04:43:50.021Z,77.42
2016-09-16T04:44:11.813Z,77.54
2016-09-16T04:44:33.568Z,77.81
2016-09-16T04:44:55.334Z,77.77
2016-09-16T04:45:18.081Z,77.57
2016-09-16T04:45:44.569Z,77.16
2016-09-16T04:46:06.323Z,77.13
2016-09-16T04:46:28.067Z,76.82